createdAt,value
2019-05-11T00:03:51.246Z,39.84
2019-05-11T00:08:52.359Z,38.54
2019-05-11T00:13:52.518Z,35.26
2019-05-11T01:14:51.239Z,46.76
2019-05-11T01:19:59.586Z,49.43
2019-05-11T01:25:06.876Z,50.70
2019-05-11T01:30:28.091Z,48.49
2019-05-11T01:35:15.392Z,46.08
2019-05-11T01:40:23.688Z,44.97
2019-05-11T01:45:32.027Z,46.13
2019-05-11T01:50:53.121Z,44.91
2019-05-11T01:55:40.761Z,39.46
2019-05-11T02:01:01.911Z,42.85
2019-05-11T02:05:51.673Z,40.83
2019-05-11T02:10:56.885Z,39.82
2019-05-11T02:16:04.157Z,42.46
2019-05-11T02:21:12.443Z,39.45
2019-05-11T02:26:19.690Z,36.66
2019-05-11T02:31:27.758Z,41.60
2019-05-11T02:36:36.149Z,37.84
2019-05-11T02:41:44.269Z,41.68
2019-05-11T02:46:52.473Z,37.28
2019-05-11T02:52:00.590Z,41.14
2019-05-11T02:57:08.800Z,44.91
2019-05-11T03:02:16.960Z,50.64
2019-05-11T03:12:25.209Z,56.33
2019-05-11T03:17:33.572Z,53.34
2019-05-11T03:22:40.827Z,48.97
2019-05-11T03:27:48.047Z,47.55
2019-05-11T03:32:56.191Z,46.67
2019-05-11T03:38:04.535Z,48.31
2019-05-11T03:43:11.779Z,45.20
2019-05-11T03:48:33.070Z,48.32
2019-05-11T03:53:21.179Z,49.48
2019-05-11T03:58:29.673Z,47.89
2019-05-11T04:03:37.997Z,47.76
2019-05-11T04:08:58.172Z,44.48
2019-05-11T04:13:46.254Z,46.28
2019-05-11T04:18:54.552Z,52.23
2019-05-11T04:24:02.804Z,46.98
2019-05-11T04:29:10.066Z,50.16
2019-05-11T04:34:18.203Z,47.44
2019-05-11T04:39:26.475Z,48.38
2019-05-11T04:44:51.639Z,42.62
2019-05-11T04:49:35.118Z,43.47
2019-05-11T04:54:43.338Z,42.37
2019-05-11T04:59:51.798Z,41.01
2019-05-11T05:04:58.970Z,44.88
2019-05-11T05:10:20.041Z,32.61
2019-05-11T05:15:26.850Z,40.02
2019-05-11T05:20:14.189Z,43.80
2019-05-11T05:25:22.353Z,44.08
2019-05-11T05:30:31.242Z,40.17
2019-05-11T05:35:39.308Z,43.79
2019-05-11T05:40:47.640Z,40.03
2019-05-11T05:45:55.734Z,47.39
2019-05-11T05:51:04.104Z,50.15
2019-05-11T05:56:12.604Z,56.59
2019-05-11T06:01:22.713Z,51.73
2019-05-11T06:06:21.180Z,57.68
2019-05-11T06:11:29.364Z,53.17
2019-05-11T06:16:37.592Z,43.89
2019-05-11T06:21:44.824Z,50.37
2019-05-11T06:26:52.964Z,56.43
2019-05-11T06:32:14.089Z,42.75
2019-05-11T06:37:02.272Z,38.72
2019-05-11T06:42:10.931Z,42.69
2019-05-11T06:47:18.038Z,43.87
2019-05-11T06:52:39.283Z,34.19
2019-05-11T06:57:26.508Z,29.45
2019-05-11T07:02:34.853Z,26.55
2019-05-11T07:07:55.958Z,25.12
2019-05-11T07:12:57.332Z,26.16
2019-05-11T07:17:57.406Z,19.64
2019-05-11T07:22:59.248Z,22.37
2019-05-11T07:27:59.446Z,21.60
2019-05-11T07:33:01.115Z,22.73
2019-05-11T07:37:48.008Z,22.63
2019-05-11T07:42:55.025Z,21.68
2019-05-11T07:48:18.462Z,21.37
2019-05-11T07:53:03.727Z,24.03
2019-05-11T07:58:23.965Z,21.79
2019-05-11T08:03:12.604Z,22.03
2019-05-11T08:08:33.779Z,19.14
2019-05-11T08:13:22.229Z,18.79
2019-05-11T08:18:43.501Z,14.64
2019-05-11T08:23:30.928Z,13.39
2019-05-11T08:28:51.020Z,14.56
2019-05-11T08:33:52.392Z,13.74
2019-05-11T08:38:53.035Z,10.82
2019-05-11T08:43:41.795Z,11.58
2019-05-11T08:49:03.182Z,9.46
2019-05-11T08:53:50.589Z,7.75
2019-05-11T08:58:58.821Z,7.79
2019-05-11T09:04:05.603Z,7.69
2019-05-11T09:09:28.687Z,7.93
2019-05-11T09:14:14.498Z,7.55
2019-05-11T09:19:22.422Z,7.75
2019-05-11T09:29:44.725Z,7.11
2019-05-11T09:39:41.758Z,9.54
2019-05-11T09:45:02.236Z,8.79
2019-05-11T09:49:51.069Z,7.79
2019-05-11T10:00:00.113Z,9.12
2019-05-11T10:05:20.225Z,8.18
2019-05-11T10:10:09.147Z,7.75
2019-05-11T10:15:15.831Z,8.04
2019-05-11T10:20:23.600Z,8.06
2019-05-11T10:25:31.077Z,7.33
2019-05-11T10:30:52.468Z,7.59
2019-05-11T10:35:41.861Z,7.73
2019-05-11T10:40:49.216Z,7.14
2019-05-11T10:45:58.765Z,6.95
2019-05-11T10:51:18.542Z,5.51
2019-05-11T11:01:25.852Z,6.62
2019-05-11T11:06:13.243Z,5.93
2019-05-11T11:11:20.434Z,6.04
2019-05-11T11:16:43.035Z,5.10
2019-05-11T11:21:29.281Z,5.12
2019-05-11T11:31:41.539Z,5.64
2019-05-11T11:41:58.623Z,6.58
2019-05-11T11:52:08.498Z,4.36
2019-05-11T12:02:32.531Z,5.17
2019-05-11T12:07:33.805Z,3.98
2019-05-11T12:17:24.958Z,3.39
2019-05-11T12:27:38.283Z,3.13
2019-05-11T12:32:58.092Z,4.03
2019-05-11T12:37:58.694Z,4.53
2019-05-11T12:47:51.879Z,2.09
2019-05-11T12:52:59.120Z,2.49
2019-05-11T12:58:08.656Z,2.61
2019-05-11T13:03:15.172Z,1.93
2019-05-11T13:08:35.515Z,1.71
2019-05-11T13:18:39.502Z,1.42
2019-05-11T13:23:39.781Z,1.46
2019-05-11T13:28:40.111Z,1.06
2019-05-11T13:33:40.374Z,1.06
2019-05-11T13:38:40.603Z,2.44
2019-05-11T13:43:40.846Z,1.38
2019-05-11T13:48:28.214Z,2.19
2019-05-11T13:53:37.509Z,0.99
2019-05-11T13:58:57.811Z,1.41
2019-05-11T14:03:43.014Z,0.89
2019-05-11T14:08:50.623Z,0.88
2019-05-11T14:18:58.909Z,0.79
2019-05-11T14:24:19.134Z,0.61
2019-05-11T14:29:08.411Z,0.77
2019-05-11T14:34:28.366Z,0.67
2019-05-11T14:39:27.983Z,0.62
2019-05-11T14:44:14.540Z,0.60
2019-05-11T14:49:22.858Z,0.61
2019-05-11T14:54:43.908Z,0.62
2019-05-11T14:59:43.997Z,0.67
2019-05-11T15:04:45.293Z,0.71
2019-05-11T15:14:33.828Z,0.98
2019-05-11T15:19:54.116Z,0.98
2019-05-11T15:24:41.318Z,0.61
2019-05-11T15:29:51.860Z,0.75
2019-05-11T15:35:03.093Z,0.72
2019-05-11T15:45:04.806Z,0.61
2019-05-11T15:55:09.153Z,0.61
2019-05-11T16:00:09.443Z,0.55
2019-05-11T16:05:09.545Z,0.60
2019-05-11T16:09:57.953Z,0.47
2019-05-11T16:15:19.276Z,0.68
2019-05-11T16:20:05.746Z,0.53
2019-05-11T16:25:28.036Z,0.56
2019-05-11T16:30:14.304Z,0.63
2019-05-11T16:35:35.525Z,0.57
2019-05-11T16:40:22.857Z,0.51
2019-05-11T16:50:47.800Z,0.75
2019-05-11T16:55:48.990Z,0.53
2019-05-11T17:00:49.358Z,0.55
2019-05-11T17:05:38.268Z,0.79
2019-05-11T17:10:59.072Z,0.70
2019-05-11T17:15:58.447Z,0.78
2019-05-11T17:20:58.621Z,0.73
2019-05-11T17:25:45.568Z,0.93
2019-05-11T17:30:54.188Z,0.94
2019-05-11T17:36:03.992Z,0.83
2019-05-11T17:46:27.882Z,0.68
2019-05-11T17:51:21.284Z,0.63
2019-05-11T17:56:35.267Z,0.71
2019-05-11T18:06:39.331Z,0.73
2019-05-11T18:16:30.317Z,0.75
2019-05-11T18:21:52.600Z,0.83
2019-05-11T18:26:40.884Z,1.08
2019-05-11T18:31:50.495Z,1.03
2019-05-11T18:41:58.990Z,0.81
2019-05-11T18:47:09.518Z,0.61
2019-05-11T18:52:20.047Z,1.11
2019-05-11T18:57:08.138Z,0.93
2019-05-11T19:02:27.926Z,1.26
2019-05-11T19:12:19.039Z,1.02
2019-05-11T19:17:28.855Z,0.99
2019-05-11T19:27:50.934Z,0.92
2019-05-11T19:32:51.096Z,1.03
2019-05-11T19:37:39.540Z,0.87
2019-05-11T19:48:08.368Z,1.15
2019-05-11T19:53:08.476Z,1.15
2019-05-11T19:58:09.900Z,1.21
2019-05-11T20:03:10.490Z,1.60
2019-05-11T20:08:00.748Z,1.82
2019-05-11T20:18:12.992Z,1.42
2019-05-11T20:23:00.430Z,1.63
2019-05-11T20:28:20.435Z,1.91
2019-05-11T20:33:08.697Z,2.06
2019-05-11T20:48:38.220Z,2.08
2019-05-11T20:53:38.778Z,2.14
2019-05-11T21:03:42.218Z,2.17
2019-05-11T21:13:48.111Z,3.60
2019-05-11T21:18:33.595Z,3.67
2019-05-11T21:28:43.985Z,3.11
2019-05-11T21:34:04.366Z,3.43
2019-05-11T21:39:04.746Z,2.96
2019-05-11T21:44:04.906Z,3.68
2019-05-11T21:49:07.830Z,4.20
2019-05-11T21:59:10.463Z,3.70
2019-05-11T22:03:59.537Z,3.92
2019-05-11T22:09:19.548Z,3.79
2019-05-11T22:19:10.880Z,3.64
2019-05-11T22:24:31.245Z,3.79
2019-05-11T22:29:18.373Z,4.02
2019-05-11T22:34:28.382Z,3.70
2019-05-11T22:39:37.781Z,3.78
2019-05-11T22:44:44.122Z,4.40
2019-05-11T22:50:04.277Z,5.09
2019-05-11T22:54:52.803Z,4.92
2019-05-11T23:11:13.527Z,4.64
2019-05-11T23:26:22.932Z,4.63
2019-05-11T23:31:43.092Z,4.77
2019-05-11T23:36:44.176Z,4.45
2019-05-11T23:41:32.557Z,5.15
2019-05-11T23:46:53.019Z,5.68
2019-05-11T23:51:54.172Z,4.17
2019-05-11T23:56:58.325Z,4.67
